sensor_id;sensor_type;location;lat;lon;timestamp;pressure;altitude;pressure_sealevel;temperature;humidity
80644;BME280;70010;60.224;24.712;2023-12-04T00:02:08;101123.42;;;-16.10;54.77
80644;BME280;70010;60.224;24.712;2023-12-04T00:04:34;101121.79;;;-15.65;54.32
80644;BME280;70010;60.224;24.712;2023-12-04T00:06:59;101125.39;;;-16.57;55.67
80644;BME280;70010;60.224;24.712;2023-12-04T00:09:25;101128.92;;;-16.65;56.31
80644;BME280;70010;60.224;24.712;2023-12-04T00:11:50;101130.33;;;-15.86;55.56
80644;BME280;70010;60.224;24.712;2023-12-04T00:14:16;101125.67;;;-15.62;55.30
80644;BME280;70010;60.224;24.712;2023-12-04T00:16:42;101122.45;;;-16.26;55.51
80644;BME280;70010;60.224;24.712;2023-12-04T00:19:08;101120.74;;;-15.21;54.21
80644;BME280;70010;60.224;24.712;2023-12-04T00:21:32;101121.31;;;-15.42;53.65
80644;BME280;70010;60.224;24.712;2023-12-04T00:23:58;101126.52;;;-16.28;54.83
80644;BME280;70010;60.224;24.712;2023-12-04T00:26:23;101119.35;;;-17.04;56.46
80644;BME280;70010;60.224;24.712;2023-12-04T00:28:49;101117.56;;;-16.75;57.04
80644;BME280;70010;60.224;24.712;2023-12-04T00:31:17;101118.84;;;-16.02;54.90
80644;BME280;70010;60.224;24.712;2023-12-04T00:33:42;101113.83;;;-15.06;53.25
80644;BME280;70010;60.224;24.712;2023-12-04T00:36:08;101121.80;;;-16.48;55.27
80644;BME280;70010;60.224;24.712;2023-12-04T00:38:32;101115.24;;;-15.61;53.05
80644;BME280;70010;60.224;24.712;2023-12-04T00:40:58;101112.39;;;-16.98;55.84
80644;BME280;70010;60.224;24.712;2023-12-04T00:43:23;101115.39;;;-17.13;56.86
80644;BME280;70010;60.224;24.712;2023-12-04T00:45:48;101112.59;;;-17.04;56.88
80644;BME280;70010;60.224;24.712;2023-12-04T00:48:14;101119.15;;;-16.83;55.78
80644;BME280;70010;60.224;24.712;2023-12-04T00:50:39;101114.04;;;-17.49;57.50
80644;BME280;70010;60.224;24.712;2023-12-04T00:53:04;101116.63;;;-17.25;57.36
80644;BME280;70010;60.224;24.712;2023-12-04T00:55:30;101116.08;;;-17.49;57.38
80644;BME280;70010;60.224;24.712;2023-12-04T00:57:55;101115.05;;;-17.43;58.08
80644;BME280;70010;60.224;24.712;2023-12-04T01:00:21;101116.98;;;-17.60;58.60
80644;BME280;70010;60.224;24.712;2023-12-04T01:02:46;101115.97;;;-17.07;57.26
80644;BME280;70010;60.224;24.712;2023-12-04T01:05:11;101115.40;;;-16.81;57.21
80644;BME280;70010;60.224;24.712;2023-12-04T01:07:37;101108.71;;;-17.03;56.03
80644;BME280;70010;60.224;24.712;2023-12-04T01:10:04;101109.49;;;-16.88;55.76
80644;BME280;70010;60.224;24.712;2023-12-04T01:12:28;101109.51;;;-16.41;54.82
80644;BME280;70010;60.224;24.712;2023-12-04T01:14:53;101109.57;;;-17.43;56.27
80644;BME280;70010;60.224;24.712;2023-12-04T01:17:19;101109.46;;;-17.18;56.71
80644;BME280;70010;60.224;24.712;2023-12-04T01:19:44;101111.33;;;-17.48;57.21
80644;BME280;70010;60.224;24.712;2023-12-04T01:22:09;101114.13;;;-17.69;57.48
80644;BME280;70010;60.224;24.712;2023-12-04T01:24:35;101115.28;;;-17.74;57.90
80644;BME280;70010;60.224;24.712;2023-12-04T01:27:00;101115.85;;;-17.64;57.94
80644;BME280;70010;60.224;24.712;2023-12-04T01:29:26;101109.77;;;-17.09;57.30
80644;BME280;70010;60.224;24.712;2023-12-04T01:31:51;101116.91;;;-17.44;56.02
80644;BME280;70010;60.224;24.712;2023-12-04T01:34:17;101111.66;;;-17.13;55.54
80644;BME280;70010;60.224;24.712;2023-12-04T01:36:43;101111.31;;;-17.48;56.72
80644;BME280;70010;60.224;24.712;2023-12-04T01:39:08;101117.85;;;-17.60;57.39
80644;BME280;70010;60.224;24.712;2023-12-04T01:41:33;101113.60;;;-18.01;57.64
80644;BME280;70010;60.224;24.712;2023-12-04T01:43:59;101112.63;;;-17.62;57.00
80644;BME280;70010;60.224;24.712;2023-12-04T01:46:24;101107.90;;;-17.37;55.57
80644;BME280;70010;60.224;24.712;2023-12-04T01:48:49;101109.35;;;-18.06;56.33
80644;BME280;70010;60.224;24.712;2023-12-04T01:51:17;101109.55;;;-17.90;57.11
80644;BME280;70010;60.224;24.712;2023-12-04T01:53:41;101109.93;;;-17.55;55.70
80644;BME280;70010;60.224;24.712;2023-12-04T01:56:07;101106.78;;;-17.40;55.50
80644;BME280;70010;60.224;24.712;2023-12-04T01:58:31;101108.02;;;-17.60;56.12
80644;BME280;70010;60.224;24.712;2023-12-04T02:00:57;101106.71;;;-17.69;56.48
80644;BME280;70010;60.224;24.712;2023-12-04T02:03:23;101104.32;;;-17.61;56.50
80644;BME280;70010;60.224;24.712;2023-12-04T02:05:48;101097.25;;;-16.58;54.68
80644;BME280;70010;60.224;24.712;2023-12-04T02:08:14;101103.68;;;-17.60;56.11
80644;BME280;70010;60.224;24.712;2023-12-04T02:10:39;101100.55;;;-17.44;55.66
80644;BME280;70010;60.224;24.712;2023-12-04T02:13:05;101097.52;;;-16.36;53.70
80644;BME280;70010;60.224;24.712;2023-12-04T02:15:30;101092.61;;;-17.31;55.07
80644;BME280;70010;60.224;24.712;2023-12-04T02:17:56;101094.08;;;-17.55;56.15
80644;BME280;70010;60.224;24.712;2023-12-04T02:20:30;101094.44;;;-17.13;56.40
80644;BME280;70010;60.224;24.712;2023-12-04T02:22:47;101099.45;;;-17.74;56.69
80644;BME280;70010;60.224;24.712;2023-12-04T02:25:13;101099.97;;;-17.92;56.56
80644;BME280;70010;60.224;24.712;2023-12-04T02:27:42;101095.73;;;-18.34;57.53
80644;BME280;70010;60.224;24.712;2023-12-04T02:30:06;101094.81;;;-17.74;56.55
80644;BME280;70010;60.224;24.712;2023-12-04T02:32:31;101095.35;;;-17.43;56.28
80644;BME280;70010;60.224;24.712;2023-12-04T02:34:56;101102.19;;;-17.78;56.54
80644;BME280;70010;60.224;24.712;2023-12-04T02:37:21;101104.44;;;-17.77;56.63
80644;BME280;70010;60.224;24.712;2023-12-04T02:39:46;101104.22;;;-17.27;55.51
80644;BME280;70010;60.224;24.712;2023-12-04T02:42:12;101099.36;;;-17.14;54.68
80644;BME280;70010;60.224;24.712;2023-12-04T02:44:37;101099.05;;;-17.42;55.47
80644;BME280;70010;60.224;24.712;2023-12-04T02:47:03;101099.95;;;-17.17;55.72
80644;BME280;70010;60.224;24.712;2023-12-04T02:49:28;101105.67;;;-17.11;55.19
80644;BME280;70010;60.224;24.712;2023-12-04T02:51:53;101103.36;;;-17.78;55.63
80644;BME280;70010;60.224;24.712;2023-12-04T02:54:19;101097.67;;;-16.83;54.87
80644;BME280;70010;60.224;24.712;2023-12-04T02:56:44;101102.99;;;-17.72;55.58
80644;BME280;70010;60.224;24.712;2023-12-04T02:59:10;101102.06;;;-17.11;55.66
80644;BME280;70010;60.224;24.712;2023-12-04T03:01:35;101092.37;;;-15.24;52.25
80644;BME280;70010;60.224;24.712;2023-12-04T03:04:01;101097.19;;;-17.27;54.91
80644;BME280;70010;60.224;24.712;2023-12-04T03:06:26;101100.48;;;-17.70;56.32
80644;BME280;70010;60.224;24.712;2023-12-04T03:08:52;101098.78;;;-17.50;56.65
80644;BME280;70010;60.224;24.712;2023-12-04T03:11:17;101099.70;;;-18.09;57.62
80644;BME280;70010;60.224;24.712;2023-12-04T03:13:42;101098.16;;;-17.85;57.82
80644;BME280;70010;60.224;24.712;2023-12-04T03:16:15;101097.28;;;-17.88;57.32
80644;BME280;70010;60.224;24.712;2023-12-04T03:18:33;101100.02;;;-17.69;57.16
80644;BME280;70010;60.224;24.712;2023-12-04T03:20:58;101097.77;;;-17.06;56.33
80644;BME280;70010;60.224;24.712;2023-12-04T03:23:24;101098.30;;;-16.76;54.29
80644;BME280;70010;60.224;24.712;2023-12-04T03:25:49;101098.67;;;-17.35;56.58
80644;BME280;70010;60.224;24.712;2023-12-04T03:28:15;101101.67;;;-17.85;56.61
80644;BME280;70010;60.224;24.712;2023-12-04T03:30:41;101100.43;;;-17.57;56.49
80644;BME280;70010;60.224;24.712;2023-12-04T03:33:06;101104.33;;;-17.84;57.39
80644;BME280;70010;60.224;24.712;2023-12-04T03:35:32;101100.15;;;-17.91;58.27
80644;BME280;70010;60.224;24.712;2023-12-04T03:37:57;101096.53;;;-16.33;54.41
80644;BME280;70010;60.224;24.712;2023-12-04T03:40:23;101101.75;;;-16.11;53.95
80644;BME280;70010;60.224;24.712;2023-12-04T03:42:48;101102.89;;;-16.82;54.13
80644;BME280;70010;60.224;24.712;2023-12-04T03:45:13;101106.05;;;-16.62;54.41
80644;BME280;70010;60.224;24.712;2023-12-04T03:47:39;101109.37;;;-16.26;53.35
80644;BME280;70010;60.224;24.712;2023-12-04T03:50:05;101111.79;;;-18.30;57.09
80644;BME280;70010;60.224;24.712;2023-12-04T03:52:30;101109.59;;;-15.95;54.06
80644;BME280;70010;60.224;24.712;2023-12-04T03:54:55;101111.00;;;-18.66;58.70
80644;BME280;70010;60.224;24.712;2023-12-04T03:57:21;101112.23;;;-18.15;58.20
80644;BME280;70010;60.224;24.712;2023-12-04T03:59:46;101117.72;;;-17.64;57.74
80644;BME280;70010;60.224;24.712;2023-12-04T04:02:12;101117.17;;;-17.44;56.85
80644;BME280;70010;60.224;24.712;2023-12-04T04:04:37;101113.52;;;-16.71;54.68
80644;BME280;70010;60.224;24.712;2023-12-04T04:07:02;101117.08;;;-16.28;52.97
80644;BME280;70010;60.224;24.712;2023-12-04T04:09:28;101108.60;;;-17.35;53.90
80644;BME280;70010;60.224;24.712;2023-12-04T04:11:54;101104.91;;;-16.48;53.17
80644;BME280;70010;60.224;24.712;2023-12-04T04:14:19;101107.98;;;-17.30;53.76
80644;BME280;70010;60.224;24.712;2023-12-04T04:16:44;101108.15;;;-17.06;54.01
80644;BME280;70010;60.224;24.712;2023-12-04T04:19:10;101109.37;;;-17.66;55.24
80644;BME280;70010;60.224;24.712;2023-12-04T04:21:39;101112.19;;;-17.53;55.61
80644;BME280;70010;60.224;24.712;2023-12-04T04:24:01;101112.96;;;-18.27;56.25
80644;BME280;70010;60.224;24.712;2023-12-04T04:26:26;101115.91;;;-17.87;55.57
80644;BME280;70010;60.224;24.712;2023-12-04T04:28:52;101122.68;;;-17.93;55.79
80644;BME280;70010;60.224;24.712;2023-12-04T04:31:18;101116.75;;;-18.53;57.03
80644;BME280;70010;60.224;24.712;2023-12-04T04:33:43;101120.09;;;-18.32;57.14
80644;BME280;70010;60.224;24.712;2023-12-04T04:36:10;101119.45;;;-15.96;52.32
80644;BME280;70010;60.224;24.712;2023-12-04T04:38:34;101118.83;;;-17.01;52.90
80644;BME280;70010;60.224;24.712;2023-12-04T04:41:00;101124.11;;;-17.90;55.05
80644;BME280;70010;60.224;24.712;2023-12-04T04:43:25;101122.31;;;-17.26;53.58
80644;BME280;70010;60.224;24.712;2023-12-04T04:45:51;101125.52;;;-18.52;56.30
80644;BME280;70010;60.224;24.712;2023-12-04T04:48:16;101125.11;;;-18.68;57.36
80644;BME280;70010;60.224;24.712;2023-12-04T04:50:42;101124.86;;;-18.32;57.56
80644;BME280;70010;60.224;24.712;2023-12-04T04:53:07;101119.22;;;-17.41;55.23
80644;BME280;70010;60.224;24.712;2023-12-04T04:55:32;101115.96;;;-17.17;55.78
80644;BME280;70010;60.224;24.712;2023-12-04T04:57:58;101117.80;;;-17.86;56.12
80644;BME280;70010;60.224;24.712;2023-12-04T05:00:23;101112.82;;;-17.89;57.06
80644;BME280;70010;60.224;24.712;2023-12-04T05:02:49;101106.74;;;-16.38;53.34
80644;BME280;70010;60.224;24.712;2023-12-04T05:05:15;101107.80;;;-16.76;54.04
80644;BME280;70010;60.224;24.712;2023-12-04T05:07:40;101112.76;;;-17.07;54.14
80644;BME280;70010;60.224;24.712;2023-12-04T05:10:06;101112.49;;;-14.50;51.06
80644;BME280;70010;60.224;24.712;2023-12-04T05:12:30;101110.74;;;-14.60;50.59
80644;BME280;70010;60.224;24.712;2023-12-04T05:14:56;101118.64;;;-18.15;57.10
80644;BME280;70010;60.224;24.712;2023-12-04T05:17:21;101117.37;;;-15.13;52.91
80644;BME280;70010;60.224;24.712;2023-12-04T05:19:47;101110.33;;;-14.41;49.84
80644;BME280;70010;60.224;24.712;2023-12-04T05:22:12;101115.06;;;-15.49;51.34
80644;BME280;70010;60.224;24.712;2023-12-04T05:24:38;101113.78;;;-15.84;52.25
80644;BME280;70010;60.224;24.712;2023-12-04T05:27:04;101114.18;;;-15.65;51.93
80644;BME280;70010;60.224;24.712;2023-12-04T05:29:29;101107.78;;;-14.91;51.43
80644;BME280;70010;60.224;24.712;2023-12-04T05:31:54;101112.38;;;-16.36;53.23
80644;BME280;70010;60.224;24.712;2023-12-04T05:34:20;101101.78;;;-15.13;51.73
80644;BME280;70010;60.224;24.712;2023-12-04T05:36:45;101098.72;;;-15.20;51.17
80644;BME280;70010;60.224;24.712;2023-12-04T05:39:10;101105.40;;;-15.82;52.85
80644;BME280;70010;60.224;24.712;2023-12-04T05:41:36;101109.53;;;-16.31;53.87
80644;BME280;70010;60.224;24.712;2023-12-04T05:44:01;101109.44;;;-15.75;53.27
80644;BME280;70010;60.224;24.712;2023-12-04T05:46:27;101107.52;;;-16.38;54.50
80644;BME280;70010;60.224;24.712;2023-12-04T05:48:53;101108.54;;;-15.93;54.44
80644;BME280;70010;60.224;24.712;2023-12-04T05:51:18;101104.34;;;-14.93;53.08
80644;BME280;70010;60.224;24.712;2023-12-04T05:53:44;101097.96;;;-14.54;51.16
80644;BME280;70010;60.224;24.712;2023-12-04T05:56:10;101099.94;;;-14.66;51.39
80644;BME280;70010;60.224;24.712;2023-12-04T05:58:35;101100.13;;;-13.49;49.14
80644;BME280;70010;60.224;24.712;2023-12-04T06:01:01;101097.95;;;-15.07;51.05
80644;BME280;70010;60.224;24.712;2023-12-04T06:03:26;101096.75;;;-15.10;51.95
80644;BME280;70010;60.224;24.712;2023-12-04T06:05:51;101095.92;;;-13.99;50.50
80644;BME280;70010;60.224;24.712;2023-12-04T06:08:16;101100.56;;;-14.37;51.31
80644;BME280;70010;60.224;24.712;2023-12-04T06:10:42;101101.13;;;-13.87;51.35
80644;BME280;70010;60.224;24.712;2023-12-04T06:13:08;101101.80;;;-12.78;49.05
80644;BME280;70010;60.224;24.712;2023-12-04T06:15:33;101104.12;;;-13.79;50.11
80644;BME280;70010;60.224;24.712;2023-12-04T06:17:59;101109.58;;;-15.35;55.05
80644;BME280;70010;60.224;24.712;2023-12-04T06:20:24;101105.81;;;-13.04;49.66
80644;BME280;70010;60.224;24.712;2023-12-04T06:22:50;101107.22;;;-13.09;49.94
80644;BME280;70010;60.224;24.712;2023-12-04T06:25:16;101107.77;;;-12.35;48.50
80644;BME280;70010;60.224;24.712;2023-12-04T06:27:41;101106.85;;;-12.42;48.35
80644;BME280;70010;60.224;24.712;2023-12-04T06:30:07;101106.94;;;-11.56;46.46
80644;BME280;70010;60.224;24.712;2023-12-04T06:32:32;101103.80;;;-12.23;47.73
80644;BME280;70010;60.224;24.712;2023-12-04T06:34:57;101107.06;;;-11.77;46.38
80644;BME280;70010;60.224;24.712;2023-12-04T06:37:23;101108.34;;;-11.98;46.58
80644;BME280;70010;60.224;24.712;2023-12-04T06:39:48;101107.04;;;-12.11;47.16
80644;BME280;70010;60.224;24.712;2023-12-04T06:42:14;101111.80;;;-11.27;46.00
80644;BME280;70010;60.224;24.712;2023-12-04T06:44:39;101113.60;;;-12.55;48.05
80644;BME280;70010;60.224;24.712;2023-12-04T06:47:04;101114.41;;;-12.14;48.20
80644;BME280;70010;60.224;24.712;2023-12-04T06:49:31;101119.29;;;-11.31;46.11
80644;BME280;70010;60.224;24.712;2023-12-04T06:51:55;101119.42;;;-12.49;47.28
80644;BME280;70010;60.224;24.712;2023-12-04T06:54:20;101125.65;;;-12.04;47.08
80644;BME280;70010;60.224;24.712;2023-12-04T06:56:46;101125.82;;;-12.78;47.72
80644;BME280;70010;60.224;24.712;2023-12-04T06:59:11;101124.03;;;-12.31;48.18
80644;BME280;70010;60.224;24.712;2023-12-04T07:01:37;101126.01;;;-13.05;49.37
80644;BME280;70010;60.224;24.712;2023-12-04T07:04:02;101124.19;;;-13.44;48.69
80644;BME280;70010;60.224;24.712;2023-12-04T07:06:28;101125.21;;;-13.46;49.76
80644;BME280;70010;60.224;24.712;2023-12-04T07:08:53;101122.89;;;-13.61;49.50
80644;BME280;70010;60.224;24.712;2023-12-04T07:11:19;101127.32;;;-14.93;53.42
80644;BME280;70010;60.224;24.712;2023-12-04T07:13:44;101123.30;;;-14.28;52.60
80644;BME280;70010;60.224;24.712;2023-12-04T07:16:10;101131.59;;;-15.58;54.46
80644;BME280;70010;60.224;24.712;2023-12-04T07:18:36;101127.05;;;-14.31;53.68
80644;BME280;70010;60.224;24.712;2023-12-04T07:21:01;101134.52;;;-15.30;55.46
80644;BME280;70010;60.224;24.712;2023-12-04T07:23:26;101128.26;;;-14.08;52.53
80644;BME280;70010;60.224;24.712;2023-12-04T07:25:52;101134.05;;;-16.07;55.77
80644;BME280;70010;60.224;24.712;2023-12-04T07:28:17;101129.61;;;-16.63;57.85
80644;BME280;70010;60.224;24.712;2023-12-04T07:30:43;101132.91;;;-15.79;56.02
80644;BME280;70010;60.224;24.712;2023-12-04T07:33:08;101135.74;;;-15.81;55.48
80644;BME280;70010;60.224;24.712;2023-12-04T07:35:33;101136.25;;;-16.02;56.00
80644;BME280;70010;60.224;24.712;2023-12-04T07:37:59;101136.95;;;-17.15;60.77
80644;BME280;70010;60.224;24.712;2023-12-04T07:40:24;101135.40;;;-14.67;53.99
80644;BME280;70010;60.224;24.712;2023-12-04T07:42:51;101139.69;;;-15.51;55.97
80644;BME280;70010;60.224;24.712;2023-12-04T07:45:15;101141.37;;;-15.77;55.65
80644;BME280;70010;60.224;24.712;2023-12-04T07:47:40;101146.25;;;-15.86;57.45
80644;BME280;70010;60.224;24.712;2023-12-04T07:50:06;101138.75;;;-14.18;54.33
80644;BME280;70010;60.224;24.712;2023-12-04T07:52:31;101139.80;;;-14.34;51.63
80644;BME280;70010;60.224;24.712;2023-12-04T07:54:56;101148.14;;;-12.97;50.50
80644;BME280;70010;60.224;24.712;2023-12-04T07:57:22;101147.57;;;-14.57;53.48
80644;BME280;70010;60.224;24.712;2023-12-04T07:59:47;101153.58;;;-15.55;55.44
80644;BME280;70010;60.224;24.712;2023-12-04T08:02:12;101145.07;;;-13.29;51.56
80644;BME280;70010;60.224;24.712;2023-12-04T08:04:38;101154.14;;;-15.92;55.74
80644;BME280;70010;60.224;24.712;2023-12-04T08:07:04;101153.88;;;-14.82;54.10
80644;BME280;70010;60.224;24.712;2023-12-04T08:09:29;101162.48;;;-15.72;55.72
80644;BME280;70010;60.224;24.712;2023-12-04T08:11:54;101167.60;;;-16.26;57.61
80644;BME280;70010;60.224;24.712;2023-12-04T08:14:20;101165.91;;;-16.44;58.12
80644;BME280;70010;60.224;24.712;2023-12-04T08:16:45;101166.68;;;-14.92;56.38
80644;BME280;70010;60.224;24.712;2023-12-04T08:19:11;101167.60;;;-14.66;54.18
80644;BME280;70010;60.224;24.712;2023-12-04T08:21:37;101175.47;;;-16.01;57.23
80644;BME280;70010;60.224;24.712;2023-12-04T08:24:02;101174.49;;;-16.54;58.94
80644;BME280;70010;60.224;24.712;2023-12-04T08:26:28;101178.76;;;-15.45;57.90
80644;BME280;70010;60.224;24.712;2023-12-04T08:28:53;101175.67;;;-16.18;58.34
80644;BME280;70010;60.224;24.712;2023-12-04T08:31:19;101177.49;;;-16.43;59.93
80644;BME280;70010;60.224;24.712;2023-12-04T08:33:45;101177.56;;;-16.10;58.39
80644;BME280;70010;60.224;24.712;2023-12-04T08:36:11;101179.40;;;-15.62;58.21
80644;BME280;70010;60.224;24.712;2023-12-04T08:38:36;101185.82;;;-15.79;58.00
80644;BME280;70010;60.224;24.712;2023-12-04T08:41:04;101186.35;;;-15.88;57.65
80644;BME280;70010;60.224;24.712;2023-12-04T08:43:27;101185.97;;;-15.76;58.15
80644;BME280;70010;60.224;24.712;2023-12-04T08:45:52;101183.83;;;-15.79;57.60
80644;BME280;70010;60.224;24.712;2023-12-04T08:48:18;101180.80;;;-14.81;55.16
80644;BME280;70010;60.224;24.712;2023-12-04T08:50:44;101182.95;;;-14.20;54.41
80644;BME280;70010;60.224;24.712;2023-12-04T08:53:09;101178.84;;;-13.54;53.10
80644;BME280;70010;60.224;24.712;2023-12-04T08:55:35;101180.25;;;-14.20;53.16
80644;BME280;70010;60.224;24.712;2023-12-04T08:58:00;101181.41;;;-13.84;53.64
80644;BME280;70010;60.224;24.712;2023-12-04T09:00:25;101177.42;;;-11.44;49.15
80644;BME280;70010;60.224;24.712;2023-12-04T09:02:51;101177.60;;;-13.93;52.19
80644;BME280;70010;60.224;24.712;2023-12-04T09:05:16;101180.18;;;-14.06;53.24
80644;BME280;70010;60.224;24.712;2023-12-04T09:07:42;101182.71;;;-14.82;54.63
80644;BME280;70010;60.224;24.712;2023-12-04T09:10:08;101180.55;;;-15.22;56.72
80644;BME280;70010;60.224;24.712;2023-12-04T09:12:33;101170.81;;;-14.49;55.20
80644;BME280;70010;60.224;24.712;2023-12-04T09:14:58;101169.54;;;-14.34;54.59
80644;BME280;70010;60.224;24.712;2023-12-04T09:17:23;101176.74;;;-14.99;56.78
80644;BME280;70010;60.224;24.712;2023-12-04T09:19:49;101173.18;;;-13.74;53.45
80644;BME280;70010;60.224;24.712;2023-12-04T09:22:15;101172.99;;;-14.04;54.46
80644;BME280;70010;60.224;24.712;2023-12-04T09:24:40;101184.15;;;-15.21;57.21
80644;BME280;70010;60.224;24.712;2023-12-04T09:27:05;101185.61;;;-15.36;58.10
80644;BME280;70010;60.224;24.712;2023-12-04T09:29:30;101183.27;;;-15.41;58.24
80644;BME280;70010;60.224;24.712;2023-12-04T09:31:56;101176.31;;;-13.19;53.79
80644;BME280;70010;60.224;24.712;2023-12-04T09:34:21;101172.11;;;-14.32;55.16
80644;BME280;70010;60.224;24.712;2023-12-04T09:36:46;101171.95;;;-13.25;54.08
80644;BME280;70010;60.224;24.712;2023-12-04T09:39:12;101173.54;;;-14.18;55.18
80644;BME280;70010;60.224;24.712;2023-12-04T09:41:38;101173.15;;;-13.72;54.29
80644;BME280;70010;60.224;24.712;2023-12-04T09:44:03;101168.85;;;-12.76;51.88
80644;BME280;70010;60.224;24.712;2023-12-04T09:46:28;101169.68;;;-13.56;53.13
80644;BME280;70010;60.224;24.712;2023-12-04T09:48:55;101168.84;;;-12.14;51.63
80644;BME280;70010;60.224;24.712;2023-12-04T09:51:20;101174.29;;;-11.67;49.32
80644;BME280;70010;60.224;24.712;2023-12-04T09:53:47;101171.00;;;-12.64;51.34
80644;BME280;70010;60.224;24.712;2023-12-04T09:56:11;101173.78;;;-12.30;50.70
80644;BME280;70010;60.224;24.712;2023-12-04T09:58:40;101177.69;;;-13.56;53.81
80644;BME280;70010;60.224;24.712;2023-12-04T10:01:01;101172.12;;;-12.76;52.25
80644;BME280;70010;60.224;24.712;2023-12-04T10:03:27;101175.49;;;-12.93;51.99
80644;BME280;70010;60.224;24.712;2023-12-04T10:05:53;101179.19;;;-13.96;55.48
80644;BME280;70010;60.224;24.712;2023-12-04T10:08:18;101178.45;;;-12.89;53.11
80644;BME280;70010;60.224;24.712;2023-12-04T10:10:43;101174.52;;;-14.66;56.78
80644;BME280;70010;60.224;24.712;2023-12-04T10:13:09;101168.93;;;-12.51;52.95
80644;BME280;70010;60.224;24.712;2023-12-04T10:17:59;101168.38;;;-12.25;51.69
80644;BME280;70010;60.224;24.712;2023-12-04T10:20:25;101167.91;;;-11.45;49.43
80644;BME280;70010;60.224;24.712;2023-12-04T10:22:55;101170.65;;;-10.81;48.42
80644;BME280;70010;60.224;24.712;2023-12-04T10:25:16;101174.65;;;-12.03;50.61
80644;BME280;70010;60.224;24.712;2023-12-04T10:27:41;101173.54;;;-11.86;49.90
80644;BME280;70010;60.224;24.712;2023-12-04T10:30:08;101173.71;;;-13.62;55.07
80644;BME280;70010;60.224;24.712;2023-12-04T10:32:36;101173.62;;;-10.85;50.09
80644;BME280;70010;60.224;24.712;2023-12-04T10:34:58;101171.00;;;-11.58;50.58
80644;BME280;70010;60.224;24.712;2023-12-04T10:37:24;101172.88;;;-12.25;51.65
80644;BME280;70010;60.224;24.712;2023-12-04T10:39:50;101176.62;;;-10.87;48.38
80644;BME280;70010;60.224;24.712;2023-12-04T10:42:23;101179.48;;;-11.47;49.98
80644;BME280;70010;60.224;24.712;2023-12-04T10:44:40;101179.00;;;-10.38;48.43
80644;BME280;70010;60.224;24.712;2023-12-04T10:47:05;101184.25;;;-11.01;48.34
80644;BME280;70010;60.224;24.712;2023-12-04T10:49:31;101184.74;;;-10.47;48.96
80644;BME280;70010;60.224;24.712;2023-12-04T10:51:56;101181.63;;;-10.94;48.11
80644;BME280;70010;60.224;24.712;2023-12-04T10:54:22;101181.45;;;-11.81;51.39
80644;BME280;70010;60.224;24.712;2023-12-04T10:56:48;101183.12;;;-11.18;49.04
80644;BME280;70010;60.224;24.712;2023-12-04T10:59:15;101181.59;;;-10.98;49.52
80644;BME280;70010;60.224;24.712;2023-12-04T11:01:42;101184.14;;;-10.71;49.60
80644;BME280;70010;60.224;24.712;2023-12-04T11:04:07;101182.76;;;-10.67;48.98
80644;BME280;70010;60.224;24.712;2023-12-04T11:06:30;101181.35;;;-12.71;53.34
80644;BME280;70010;60.224;24.712;2023-12-04T11:08:56;101187.10;;;-10.45;49.53
80644;BME280;70010;60.224;24.712;2023-12-04T11:11:24;101188.31;;;-12.09;51.28
80644;BME280;70010;60.224;24.712;2023-12-04T11:13:50;101192.63;;;-14.05;57.06
80644;BME280;70010;60.224;24.712;2023-12-04T11:16:17;101191.24;;;-11.46;51.82
80644;BME280;70010;60.224;24.712;2023-12-04T11:18:43;101191.66;;;-11.68;51.06
80644;BME280;70010;60.224;24.712;2023-12-04T11:21:06;101189.92;;;-10.49;49.27
80644;BME280;70010;60.224;24.712;2023-12-04T11:23:30;101186.00;;;-12.70;52.14
80644;BME280;70010;60.224;24.712;2023-12-04T11:25:55;101188.41;;;-14.05;57.42
80644;BME280;70010;60.224;24.712;2023-12-04T11:28:20;101190.06;;;-14.67;59.76
80644;BME280;70010;60.224;24.712;2023-12-04T11:30:45;101187.82;;;-12.08;55.04
80644;BME280;70010;60.224;24.712;2023-12-04T11:33:10;101185.46;;;-11.74;53.00
80644;BME280;70010;60.224;24.712;2023-12-04T11:35:36;101189.69;;;-10.89;51.25
80644;BME280;70010;60.224;24.712;2023-12-04T11:38:01;101190.32;;;-12.45;55.26
80644;BME280;70010;60.224;24.712;2023-12-04T11:40:27;101187.93;;;-10.55;50.35
80644;BME280;70010;60.224;24.712;2023-12-04T11:42:52;101186.41;;;-11.23;50.69
80644;BME280;70010;60.224;24.712;2023-12-04T11:45:20;101188.30;;;-10.29;49.74
80644;BME280;70010;60.224;24.712;2023-12-04T11:47:48;101193.05;;;-10.79;50.12
80644;BME280;70010;60.224;24.712;2023-12-04T11:50:10;101191.80;;;-10.76;50.05
80644;BME280;70010;60.224;24.712;2023-12-04T11:52:34;101187.73;;;-10.21;48.93
80644;BME280;70010;60.224;24.712;2023-12-04T11:55:03;101183.13;;;-9.57;47.47
80644;BME280;70010;60.224;24.712;2023-12-04T11:57:26;101186.60;;;-9.95;48.29
80644;BME280;70010;60.224;24.712;2023-12-04T11:59:51;101191.93;;;-11.01;50.05
80644;BME280;70010;60.224;24.712;2023-12-04T12:02:16;101181.33;;;-9.37;47.24
80644;BME280;70010;60.224;24.712;2023-12-04T12:04:42;101183.23;;;-9.69;47.35
80644;BME280;70010;60.224;24.712;2023-12-04T12:07:07;101184.72;;;-9.34;47.17
80644;BME280;70010;60.224;24.712;2023-12-04T12:09:33;101188.33;;;-8.84;46.67
80644;BME280;70010;60.224;24.712;2023-12-04T12:11:59;101190.31;;;-10.00;49.15
80644;BME280;70010;60.224;24.712;2023-12-04T12:14:24;101189.02;;;-9.15;47.20
80644;BME280;70010;60.224;24.712;2023-12-04T12:16:50;101194.83;;;-10.56;50.42
80644;BME280;70010;60.224;24.712;2023-12-04T12:19:15;101189.63;;;-9.63;48.38
80644;BME280;70010;60.224;24.712;2023-12-04T12:21:41;101190.17;;;-9.54;48.23
80644;BME280;70010;60.224;24.712;2023-12-04T12:24:07;101197.91;;;-11.09;51.09